sensor_id;sensor_type;location;lat;lon;timestamp;pressure;altitude;pressure_sealevel;temperature;humidity
57376;BME280;44805;45.048;5.062;2023-05-08T00:01:30;100050.41;;;14.65;100.00
57376;BME280;44805;45.048;5.062;2023-05-08T00:03:56;100094.41;;;15.07;100.00
57376;BME280;44805;45.048;5.062;2023-05-08T00:06:21;100060.97;;;14.89;100.00
57376;BME280;44805;45.048;5.062;2023-05-08T00:08:47;100005.66;;;14.37;100.00
57376;BME280;44805;45.048;5.062;2023-05-08T00:11:13;100057.34;;;14.82;100.00
57376;BME280;44805;45.048;5.062;2023-05-08T00:13:38;100022.25;;;14.56;100.00
57376;BME280;44805;45.048;5.062;2023-05-08T00:16:06;100054.50;;;14.75;100.00
57376;BME280;44805;45.048;5.062;2023-05-08T00:18:34;100026.56;;;14.57;100.00
57376;BME280;44805;45.048;5.062;2023-05-08T00:21:00;100049.06;;;14.69;100.00
57376;BME280;44805;45.048;5.062;2023-05-08T00:23:25;99995.41;;;14.42;100.00
57376;BME280;44805;45.048;5.062;2023-05-08T00:25:51;100047.09;;;14.71;100.00
57376;BME280;44805;45.048;5.062;2023-05-08T00:28:16;99998.72;;;14.44;100.00
57376;BME280;44805;45.048;5.062;2023-05-08T00:30:41;100046.56;;;14.92;100.00
57376;BME280;44805;45.048;5.062;2023-05-08T00:33:07;100045.59;;;14.68;100.00
57376;BME280;44805;45.048;5.062;2023-05-08T00:35:33;99986.16;;;14.30;100.00
57376;BME280;44805;45.048;5.062;2023-05-08T00:37:59;99978.19;;;14.22;100.00
57376;BME280;44805;45.048;5.062;2023-05-08T00:40:25;100046.44;;;14.61;100.00
57376;BME280;44805;45.048;5.062;2023-05-08T00:42:51;100018.47;;;14.58;100.00
57376;BME280;44805;45.048;5.062;2023-05-08T00:45:16;100021.56;;;14.70;100.00
57376;BME280;44805;45.048;5.062;2023-05-08T00:47:42;100018.47;;;14.58;100.00
57376;BME280;44805;45.048;5.062;2023-05-08T00:50:08;100060.97;;;14.89;100.00
57376;BME280;44805;45.048;5.062;2023-05-08T00:52:34;100001.06;;;14.56;100.00
57376;BME280;44805;45.048;5.062;2023-05-08T00:55:01;100066.09;;;14.99;100.00
57376;BME280;44805;45.048;5.062;2023-05-08T00:57:28;100027.50;;;14.88;100.00
57376;BME280;44805;45.048;5.062;2023-05-08T00:59:54;100037.44;;;14.78;100.00
57376;BME280;44805;45.048;5.062;2023-05-08T01:02:20;100041.44;;;14.82;100.00
57376;BME280;44805;45.048;5.062;2023-05-08T01:04:47;100077.81;;;15.13;100.00
57376;BME280;44805;45.048;5.062;2023-05-08T01:07:12;100046.91;;;14.89;100.00
57376;BME280;44805;45.048;5.062;2023-05-08T01:09:38;100069.25;;;14.94;100.00
57376;BME280;44805;45.048;5.062;2023-05-08T01:14:50;100076.19;;;14.95;100.00
57376;BME280;44805;45.048;5.062;2023-05-08T01:17:37;100069.59;;;14.91;100.00
57376;BME280;44805;45.048;5.062;2023-05-08T01:20:31;100024.91;;;14.64;100.00
57376;BME280;44805;45.048;5.062;2023-05-08T01:23:37;100070.38;;;15.00;100.00
57376;BME280;44805;45.048;5.062;2023-05-08T01:34:32;100076.19;;;15.12;100.00
57376;BME280;44805;45.048;5.062;2023-05-08T01:37:00;100081.66;;;15.02;100.00
57376;BME280;44805;45.048;5.062;2023-05-08T01:39:50;100080.34;;;14.98;100.00
57376;BME280;44805;45.048;5.062;2023-05-08T01:42:23;100052.34;;;14.87;100.00
57376;BME280;44805;45.048;5.062;2023-05-08T01:44:58;100073.56;;;14.87;100.00
57376;BME280;44805;45.048;5.062;2023-05-08T01:47:28;100068.44;;;14.94;100.00
57376;BME280;44805;45.048;5.062;2023-05-08T01:52:42;100068.59;;;14.84;100.00
57376;BME280;44805;45.048;5.062;2023-05-08T01:55:13;100056.34;;;14.75;100.00
57376;BME280;44805;45.048;5.062;2023-05-08T01:57:44;99979.84;;;14.39;100.00
57376;BME280;44805;45.048;5.062;2023-05-08T02:00:11;100003.72;;;14.56;100.00
57376;BME280;44805;45.048;5.062;2023-05-08T02:02:38;100070.72;;;15.05;100.00
57376;BME280;44805;45.048;5.062;2023-05-08T02:05:05;100056.34;;;14.91;100.00
57376;BME280;44805;45.048;5.062;2023-05-08T02:07:33;100010.66;;;14.57;100.00
57376;BME280;44805;45.048;5.062;2023-05-08T02:10:02;100080.00;;;14.93;100.00
57376;BME280;44805;45.048;5.062;2023-05-08T02:12:30;100067.63;;;14.77;100.00
57376;BME280;44805;45.048;5.062;2023-05-08T02:14:58;99973.09;;;14.12;100.00
57376;BME280;44805;45.048;5.062;2023-05-08T02:17:25;100009.31;;;14.36;100.00
57376;BME280;44805;45.048;5.062;2023-05-08T02:19:53;100073.91;;;14.68;100.00
57376;BME280;44805;45.048;5.062;2023-05-08T02:22:20;99981.88;;;14.04;100.00
57376;BME280;44805;45.048;5.062;2023-05-08T02:24:48;100032.19;;;14.53;100.00
57376;BME280;44805;45.048;5.062;2023-05-08T02:27:22;100088.81;;;14.77;100.00
57376;BME280;44805;45.048;5.062;2023-05-08T02:29:50;100011.31;;;14.50;100.00
57376;BME280;44805;45.048;5.062;2023-05-08T02:32:17;100063.63;;;14.73;100.00
57376;BME280;44805;45.048;5.062;2023-05-08T02:34:44;100009.31;;;14.36;100.00
57376;BME280;44805;45.048;5.062;2023-05-08T02:37:10;100004.84;;;14.45;100.00
57376;BME280;44805;45.048;5.062;2023-05-08T02:39:38;100000.56;;;14.36;100.00
57376;BME280;44805;45.048;5.062;2023-05-08T02:42:05;100024.72;;;14.57;100.00
57376;BME280;44805;45.048;5.062;2023-05-08T02:44:31;100033.81;;;14.63;100.00
57376;BME280;44805;45.048;5.062;2023-05-08T02:47:26;100060.81;;;14.83;100.00
57376;BME280;44805;45.048;5.062;2023-05-08T02:49:59;100058.81;;;14.85;100.00
57376;BME280;44805;45.048;5.062;2023-05-08T02:52:31;99952.56;;;14.22;100.00
57376;BME280;44805;45.048;5.062;2023-05-08T02:55:02;100021.94;;;14.59;100.00
57376;BME280;44805;45.048;5.062;2023-05-08T03:00:17;99994.28;;;14.53;100.00
57376;BME280;44805;45.048;5.062;2023-05-08T03:03:06;100043.59;;;14.87;100.00
57376;BME280;44805;45.048;5.062;2023-05-08T03:05:35;99983.19;;;14.33;100.00
57376;BME280;44805;45.048;5.062;2023-05-08T03:08:05;100046.88;;;14.81;100.00
57376;BME280;44805;45.048;5.062;2023-05-08T03:10:32;100061.28;;;14.94;100.00
57376;BME280;44805;45.048;5.062;2023-05-08T03:13:03;100052.00;;;14.90;100.00
57376;BME280;44805;45.048;5.062;2023-05-08T03:15:34;100043.72;;;14.85;100.00
57376;BME280;44805;45.048;5.062;2023-05-08T03:18:07;100055.03;;;14.79;100.00
57376;BME280;44805;45.048;5.062;2023-05-08T03:20:38;100023.88;;;14.65;100.00
57376;BME280;44805;45.048;5.062;2023-05-08T03:23:04;100052.84;;;14.83;100.00
57376;BME280;44805;45.048;5.062;2023-05-08T03:25:31;99968.25;;;14.32;100.00
57376;BME280;44805;45.048;5.062;2023-05-08T03:27:58;100017.63;;;14.66;100.00
57376;BME280;44805;45.048;5.062;2023-05-08T03:30:25;99985.16;;;14.31;100.00
57376;BME280;44805;45.048;5.062;2023-05-08T03:32:52;99955.19;;;14.14;100.00
57376;BME280;44805;45.048;5.062;2023-05-08T03:35:18;99954.03;;;14.17;100.00
57376;BME280;44805;45.048;5.062;2023-05-08T03:37:45;100041.94;;;14.77;100.00
57376;BME280;44805;45.048;5.062;2023-05-08T03:40:11;100056.00;;;14.86;100.00
57376;BME280;44805;45.048;5.062;2023-05-08T03:42:37;100045.03;;;14.97;100.00
57376;BME280;44805;45.048;5.062;2023-05-08T03:45:05;99989.47;;;14.57;100.00
57376;BME280;44805;45.048;5.062;2023-05-08T03:47:30;100002.69;;;14.65;100.00
57376;BME280;44805;45.048;5.062;2023-05-08T03:49:57;99980.34;;;14.43;100.00
57376;BME280;44805;45.048;5.062;2023-05-08T03:52:23;100041.09;;;14.77;100.00
57376;BME280;44805;45.048;5.062;2023-05-08T03:54:49;100036.63;;;14.77;100.00
57376;BME280;44805;45.048;5.062;2023-05-08T03:57:15;100010.50;;;14.58;100.00
57376;BME280;44805;45.048;5.062;2023-05-08T03:59:53;100009.97;;;14.63;100.00
57376;BME280;44805;45.048;5.062;2023-05-08T04:02:32;100040.75;;;14.80;100.00
57376;BME280;44805;45.048;5.062;2023-05-08T04:05:19;100062.47;;;14.92;100.00
57376;BME280;44805;45.048;5.062;2023-05-08T04:07:55;100040.75;;;14.80;100.00
57376;BME280;44805;45.048;5.062;2023-05-08T04:10:31;99989.78;;;14.45;100.00
57376;BME280;44805;45.048;5.062;2023-05-08T04:13:07;100062.13;;;14.87;100.00
57376;BME280;44805;45.048;5.062;2023-05-08T04:15:37;100071.91;;;14.78;100.00
57376;BME280;44805;45.048;5.062;2023-05-08T04:20:29;100049.06;;;14.77;100.00
57376;BME280;44805;45.048;5.062;2023-05-08T04:22:57;100012.63;;;14.54;100.00
57376;BME280;44805;45.048;5.062;2023-05-08T04:25:23;100078.53;;;14.90;100.00
57376;BME280;44805;45.048;5.062;2023-05-08T04:27:50;99983.19;;;14.33;100.00
57376;BME280;44805;45.048;5.062;2023-05-08T04:30:16;99978.34;;;14.45;100.00
57376;BME280;44805;45.048;5.062;2023-05-08T04:32:42;100031.19;;;14.71;100.00
57376;BME280;44805;45.048;5.062;2023-05-08T04:35:09;100034.16;;;14.60;100.00
57376;BME280;44805;45.048;5.062;2023-05-08T04:37:34;99966.63;;;14.15;100.00
57376;BME280;44805;45.048;5.062;2023-05-08T04:40:00;99978.72;;;14.25;100.00
57376;BME280;44805;45.048;5.062;2023-05-08T04:42:26;99972.59;;;14.25;100.00
57376;BME280;44805;45.048;5.062;2023-05-08T04:44:52;100011.66;;;14.56;100.00
57376;BME280;44805;45.048;5.062;2023-05-08T04:47:18;100050.88;;;14.76;100.00
57376;BME280;44805;45.048;5.062;2023-05-08T04:49:43;100059.13;;;14.90;100.00
57376;BME280;44805;45.048;5.062;2023-05-08T04:52:09;100021.22;;;14.73;100.00
57376;BME280;44805;45.048;5.062;2023-05-08T04:54:34;100039.47;;;14.76;100.00
57376;BME280;44805;45.048;5.062;2023-05-08T04:57:00;100069.72;;;15.06;100.00
57376;BME280;44805;45.048;5.062;2023-05-08T04:59:26;100037.97;;;14.82;100.00
57376;BME280;44805;45.048;5.062;2023-05-08T05:01:51;100084.16;;;15.04;100.00
57376;BME280;44805;45.048;5.062;2023-05-08T05:04:17;100026.53;;;14.65;100.00
57376;BME280;44805;45.048;5.062;2023-05-08T05:06:43;100045.72;;;14.83;100.00
57376;BME280;44805;45.048;5.062;2023-05-08T05:09:08;100052.84;;;14.91;100.00
57376;BME280;44805;45.048;5.062;2023-05-08T05:11:34;100090.09;;;15.14;100.00
57376;BME280;44805;45.048;5.062;2023-05-08T05:14:00;100042.44;;;14.81;100.00
57376;BME280;44805;45.048;5.062;2023-05-08T05:16:25;100018.44;;;14.66;100.00
57376;BME280;44805;45.048;5.062;2023-05-08T05:18:52;100055.84;;;14.96;100.00
57376;BME280;44805;45.048;5.062;2023-05-08T05:21:18;100023.56;;;14.76;100.00
57376;BME280;44805;45.048;5.062;2023-05-08T05:23:43;100053.97;;;15.05;100.00
57376;BME280;44805;45.048;5.062;2023-05-08T05:26:08;100025.66;;;14.97;100.00
57376;BME280;44805;45.048;5.062;2023-05-08T05:28:34;100090.66;;;15.40;100.00
57376;BME280;44805;45.048;5.062;2023-05-08T05:30:59;100039.03;;;15.12;100.00
57376;BME280;44805;45.048;5.062;2023-05-08T05:33:25;100016.81;;;15.13;100.00
57376;BME280;44805;45.048;5.062;2023-05-08T05:35:50;100024.78;;;15.13;100.00
57376;BME280;44805;45.048;5.062;2023-05-08T05:38:16;100046.97;;;15.20;100.00
57376;BME280;44805;45.048;5.062;2023-05-08T05:40:41;100045.34;;;15.19;100.00
57376;BME280;44805;45.048;5.062;2023-05-08T05:43:06;100043.66;;;15.18;100.00
57376;BME280;44805;45.048;5.062;2023-05-08T05:45:32;100015.22;;;15.04;100.00
57376;BME280;44805;45.048;5.062;2023-05-08T05:47:57;100049.44;;;15.30;100.00
57376;BME280;44805;45.048;5.062;2023-05-08T05:50:23;100048.06;;;15.34;100.00
57376;BME280;44805;45.048;5.062;2023-05-08T05:52:48;100059.81;;;15.48;100.00
57376;BME280;44805;45.048;5.062;2023-05-08T05:55:14;100075.97;;;15.69;100.00
57376;BME280;44805;45.048;5.062;2023-05-08T05:57:45;100081.28;;;15.77;100.00
57376;BME280;44805;45.048;5.062;2023-05-08T06:00:10;100050.25;;;15.78;100.00
57376;BME280;44805;45.048;5.062;2023-05-08T06:02:36;100042.56;;;15.83;100.00
57376;BME280;44805;45.048;5.062;2023-05-08T06:05:02;100082.06;;;16.09;100.00
57376;BME280;44805;45.048;5.062;2023-05-08T06:07:28;99996.50;;;15.68;100.00
57376;BME280;44805;45.048;5.062;2023-05-08T06:09:53;100069.84;;;16.23;100.00
57376;BME280;44805;45.048;5.062;2023-05-08T06:12:20;100063.47;;;16.09;100.00
57376;BME280;44805;45.048;5.062;2023-05-08T06:14:45;100003.63;;;15.75;100.00
57376;BME280;44805;45.048;5.062;2023-05-08T06:17:10;100073.44;;;16.07;100.00
57376;BME280;44805;45.048;5.062;2023-05-08T06:19:36;100107.69;;;16.25;100.00
57376;BME280;44805;45.048;5.062;2023-05-08T06:22:01;100072.31;;;16.01;100.00
57376;BME280;44805;45.048;5.062;2023-05-08T06:24:27;100004.47;;;15.68;100.00
57376;BME280;44805;45.048;5.062;2023-05-08T06:26:53;100073.66;;;15.97;100.00
57376;BME280;44805;45.048;5.062;2023-05-08T06:29:18;100004.31;;;15.69;100.00
57376;BME280;44805;45.048;5.062;2023-05-08T06:31:44;100099.50;;;16.35;100.00
57376;BME280;44805;45.048;5.062;2023-05-08T06:34:09;100043.63;;;15.97;100.00
57376;BME280;44805;45.048;5.062;2023-05-08T06:36:35;100079.28;;;16.25;100.00
57376;BME280;44805;45.048;5.062;2023-05-08T06:39:03;100069.44;;;16.34;100.00
57376;BME280;44805;45.048;5.062;2023-05-08T06:41:30;100054.69;;;16.32;100.00
57376;BME280;44805;45.048;5.062;2023-05-08T06:43:55;100063.34;;;16.48;100.00
57376;BME280;44805;45.048;5.062;2023-05-08T06:46:21;99965.38;;;15.84;100.00
57376;BME280;44805;45.048;5.062;2023-05-08T06:48:46;100054.41;;;16.26;100.00
57376;BME280;44805;45.048;5.062;2023-05-08T06:51:12;100032.56;;;16.16;100.00
57376;BME280;44805;45.048;5.062;2023-05-08T06:53:37;99973.31;;;15.93;100.00
57376;BME280;44805;45.048;5.062;2023-05-08T06:56:03;100056.34;;;16.33;100.00
57376;BME280;44805;45.048;5.062;2023-05-08T06:58:28;100051.81;;;16.56;100.00
57376;BME280;44805;45.048;5.062;2023-05-08T07:00:55;100016.88;;;16.44;99.76
57376;BME280;44805;45.048;5.062;2023-05-08T07:03:21;100095.09;;;16.88;97.85
57376;BME280;44805;45.048;5.062;2023-05-08T07:05:46;100073.75;;;16.96;96.85
57376;BME280;44805;45.048;5.062;2023-05-08T07:08:12;100040.47;;;17.00;95.63
57376;BME280;44805;45.048;5.062;2023-05-08T07:10:37;100101.38;;;17.54;93.27
57376;BME280;44805;45.048;5.062;2023-05-08T07:13:03;100101.47;;;17.76;92.36
57376;BME280;44805;45.048;5.062;2023-05-08T07:15:30;100024.41;;;17.38;91.46
57376;BME280;44805;45.048;5.062;2023-05-08T07:17:56;100014.13;;;17.20;92.33
57376;BME280;44805;45.048;5.062;2023-05-08T07:20:21;100055.31;;;17.39;92.33
57376;BME280;44805;45.048;5.062;2023-05-08T07:22:48;100107.09;;;17.81;92.14
57376;BME280;44805;45.048;5.062;2023-05-08T07:25:14;100073.13;;;17.53;91.45
57376;BME280;44805;45.048;5.062;2023-05-08T07:27:40;100055.59;;;17.44;90.47
57376;BME280;44805;45.048;5.062;2023-05-08T07:30:06;100117.63;;;17.74;86.99
57376;BME280;44805;45.048;5.062;2023-05-08T07:32:32;100087.97;;;17.63;88.87
57376;BME280;44805;45.048;5.062;2023-05-08T07:34:57;100085.88;;;17.58;90.26
57376;BME280;44805;45.048;5.062;2023-05-08T07:37:23;100051.81;;;17.09;90.14
57376;BME280;44805;45.048;5.062;2023-05-08T07:39:48;100102.75;;;17.21;89.60
57376;BME280;44805;45.048;5.062;2023-05-08T07:42:13;100090.53;;;17.11;88.05
57376;BME280;44805;45.048;5.062;2023-05-08T07:44:39;100103.13;;;17.32;87.18
57376;BME280;44805;45.048;5.062;2023-05-08T07:47:05;100102.56;;;17.22;87.81
57376;BME280;44805;45.048;5.062;2023-05-08T07:49:30;100126.34;;;17.53;87.47
57376;BME280;44805;45.048;5.062;2023-05-08T07:51:55;100087.63;;;17.36;86.56
57376;BME280;44805;45.048;5.062;2023-05-08T07:54:21;100138.28;;;17.57;86.36
57376;BME280;44805;45.048;5.062;2023-05-08T07:56:46;100085.41;;;17.40;86.89
57376;BME280;44805;45.048;5.062;2023-05-08T07:59:12;100078.81;;;17.35;86.97
57376;BME280;44805;45.048;5.062;2023-05-08T08:01:40;100083.13;;;17.22;87.82
57376;BME280;44805;45.048;5.062;2023-05-08T08:04:11;100107.19;;;17.28;88.15
57376;BME280;44805;45.048;5.062;2023-05-08T08:06:37;100038.63;;;17.16;87.63
57376;BME280;44805;45.048;5.062;2023-05-08T08:09:02;100106.06;;;17.82;86.87
57376;BME280;44805;45.048;5.062;2023-05-08T08:11:28;100119.16;;;17.98;85.49
57376;BME280;44805;45.048;5.062;2023-05-08T08:13:53;100138.69;;;18.06;84.65
57376;BME280;44805;45.048;5.062;2023-05-08T08:16:18;100097.84;;;17.98;84.16
57376;BME280;44805;45.048;5.062;2023-05-08T08:18:44;100102.03;;;18.08;83.24
57376;BME280;44805;45.048;5.062;2023-05-08T08:21:09;100118.41;;;18.05;84.32
57376;BME280;44805;45.048;5.062;2023-05-08T08:23:35;100096.75;;;17.78;85.32
57376;BME280;44805;45.048;5.062;2023-05-08T08:26:00;100065.47;;;17.65;85.06
57376;BME280;44805;45.048;5.062;2023-05-08T08:28:50;100126.34;;;17.83;85.92
57376;BME280;44805;45.048;5.062;2023-05-08T08:31:16;100125.72;;;17.81;85.71
57376;BME280;44805;45.048;5.062;2023-05-08T08:33:42;100133.13;;;18.00;83.71
57376;BME280;44805;45.048;5.062;2023-05-08T08:36:14;100128.09;;;18.27;84.70
57376;BME280;44805;45.048;5.062;2023-05-08T08:38:40;100081.88;;;18.20;82.81
57376;BME280;44805;45.048;5.062;2023-05-08T08:41:05;100121.09;;;18.69;83.99
57376;BME280;44805;45.048;5.062;2023-05-08T08:43:34;100138.75;;;18.70;80.63
57376;BME280;44805;45.048;5.062;2023-05-08T08:46:02;100106.50;;;18.65;80.21
57376;BME280;44805;45.048;5.062;2023-05-08T08:48:37;100105.94;;;18.48;80.60
57376;BME280;44805;45.048;5.062;2023-05-08T08:51:13;100136.84;;;18.64;80.82
57376;BME280;44805;45.048;5.062;2023-05-08T08:53:42;100045.69;;;17.89;81.59
57376;BME280;44805;45.048;5.062;2023-05-08T08:56:09;100039.44;;;17.46;84.03
57376;BME280;44805;45.048;5.062;2023-05-08T08:58:37;100132.22;;;18.30;81.25
57376;BME280;44805;45.048;5.062;2023-05-08T09:01:08;100089.38;;;18.10;80.99
57376;BME280;44805;45.048;5.062;2023-05-08T09:03:38;100132.59;;;18.48;81.65
57376;BME280;44805;45.048;5.062;2023-05-08T09:06:04;100135.47;;;18.90;80.19
57376;BME280;44805;45.048;5.062;2023-05-08T09:08:29;100143.69;;;19.16;78.04
57376;BME280;44805;45.048;5.062;2023-05-08T09:10:56;100142.06;;;19.22;76.15
57376;BME280;44805;45.048;5.062;2023-05-08T09:13:22;100126.38;;;19.12;72.54
57376;BME280;44805;45.048;5.062;2023-05-08T09:15:48;100143.31;;;19.54;73.15
57376;BME280;44805;45.048;5.062;2023-05-08T09:18:14;100083.84;;;19.04;72.21
57376;BME280;44805;45.048;5.062;2023-05-08T09:20:40;100137.94;;;19.19;70.66
57376;BME280;44805;45.048;5.062;2023-05-08T09:23:05;100134.06;;;19.22;71.74
57376;BME280;44805;45.048;5.062;2023-05-08T09:31:40;100137.13;;;19.19;71.72
57376;BME280;44805;45.048;5.062;2023-05-08T09:34:21;100169.31;;;19.39;72.16
57376;BME280;44805;45.048;5.062;2023-05-08T09:36:51;100139.19;;;19.58;70.00
57376;BME280;44805;45.048;5.062;2023-05-08T09:39:21;100094.25;;;19.27;69.27
57376;BME280;44805;45.048;5.062;2023-05-08T09:42:02;100121.50;;;19.50;70.86
57376;BME280;44805;45.048;5.062;2023-05-08T09:44:27;100162.75;;;19.48;70.48
57376;BME280;44805;45.048;5.062;2023-05-08T09:47:10;100143.91;;;19.56;71.31
57376;BME280;44805;45.048;5.062;2023-05-08T09:49:39;100137.16;;;19.60;72.16
57376;BME280;44805;45.048;5.062;2023-05-08T09:52:05;100107.66;;;19.40;71.49
57376;BME280;44805;45.048;5.062;2023-05-08T09:54:31;100116.97;;;19.51;71.38
57376;BME280;44805;45.048;5.062;2023-05-08T09:56:57;100156.13;;;19.37;72.84
57376;BME280;44805;45.048;5.062;2023-05-08T09:59:27;100070.44;;;18.97;71.54
57376;BME280;44805;45.048;5.062;2023-05-08T10:01:55;100109.94;;;19.08;71.64
57376;BME280;44805;45.048;5.062;2023-05-08T10:04:34;100113.34;;;19.24;72.41
57376;BME280;44805;45.048;5.062;2023-05-08T10:07:00;100094.66;;;18.74;73.18
57376;BME280;44805;45.048;5.062;2023-05-08T10:09:25;100163.31;;;19.08;72.16
57376;BME280;44805;45.048;5.062;2023-05-08T10:11:52;100125.19;;;18.86;73.29
57376;BME280;44805;45.048;5.062;2023-05-08T10:14:34;100175.00;;;19.36;73.18
57376;BME280;44805;45.048;5.062;2023-05-08T10:17:06;100136.38;;;19.32;72.34
57376;BME280;44805;45.048;5.062;2023-05-08T10:19:35;100117.06;;;19.29;71.04
57376;BME280;44805;45.048;5.062;2023-05-08T10:22:06;100137.72;;;19.49;70.92
57376;BME280;44805;45.048;5.062;2023-05-08T10:24:37;100169.72;;;19.70;70.38
57376;BME280;44805;45.048;5.062;2023-05-08T10:27:21;100165.75;;;19.66;70.19
57376;BME280;44805;45.048;5.062;2023-05-08T10:30:13;100164.78;;;19.67;69.44
57376;BME280;44805;45.048;5.062;2023-05-08T10:32:47;100103.47;;;19.24;69.42
57376;BME280;44805;45.048;5.062;2023-05-08T10:35:16;100072.78;;;19.07;69.18
57376;BME280;44805;45.048;5.062;2023-05-08T10:37:44;100098.59;;;19.00;70.40
57376;BME280;44805;45.048;5.062;2023-05-08T10:40:10;100070.03;;;18.94;71.23
57376;BME280;44805;45.048;5.062;2023-05-08T10:42:39;100160.72;;;19.50;70.33
57376;BME280;44805;45.048;5.062;2023-05-08T10:48:53;100159.72;;;19.86;68.97
57376;BME280;44805;45.048;5.062;2023-05-08T11:03:31;100117.56;;;20.83;64.89
57376;BME280;44805;45.048;5.062;2023-05-08T11:05:57;100095.34;;;20.82;63.84
57376;BME280;44805;45.048;5.062;2023-05-08T11:08:26;100093.06;;;21.06;64.01
57376;BME280;44805;45.048;5.062;2023-05-08T11:13:27;100098.44;;;20.99;63.24
57376;BME280;44805;45.048;5.062;2023-05-08T11:16:04;100125.16;;;21.39;63.63
57376;BME280;44805;45.048;5.062;2023-05-08T11:18:35;100102.94;;;21.05;64.43
57376;BME280;44805;45.048;5.062;2023-05-08T11:21:03;100044.31;;;20.57;64.02
57376;BME280;44805;45.048;5.062;2023-05-08T11:23:32;100122.47;;;21.19;63.71
57376;BME280;44805;45.048;5.062;2023-05-08T11:26:03;100064.88;;;20.96;63.40
57376;BME280;44805;45.048;5.062;2023-05-08T11:31:17;100067.38;;;20.71;62.68
57376;BME280;44805;45.048;5.062;2023-05-08T11:33:43;100058.25;;;20.39;63.89
57376;BME280;44805;45.048;5.062;2023-05-08T11:36:18;100074.31;;;20.39;65.44
57376;BME280;44805;45.048;5.062;2023-05-08T11:39:09;100113.88;;;20.57;65.45
57376;BME280;44805;45.048;5.062;2023-05-08T11:41:39;100072.63;;;20.25;65.41
57376;BME280;44805;45.048;5.062;2023-05-08T11:44:21;100098.34;;;20.32;65.79
57376;BME280;44805;45.048;5.062;2023-05-08T11:46:54;100101.53;;;20.69;65.39
57376;BME280;44805;45.048;5.062;2023-05-08T11:49:24;100125.78;;;20.81;65.21
57376;BME280;44805;45.048;5.062;2023-05-08T11:51:52;100120.03;;;20.97;64.69
57376;BME280;44805;45.048;5.062;2023-05-08T11:54:22;100022.91;;;20.77;64.20
57376;BME280;44805;45.048;5.062;2023-05-08T11:56:49;100057.59;;;21.23;63.05
57376;BME280;44805;45.048;5.062;2023-05-08T11:59:16;100023.19;;;21.20;61.33
57376;BME280;44805;45.048;5.062;2023-05-08T12:01:42;100110.78;;;22.23;60.46
57376;BME280;44805;45.048;5.062;2023-05-08T12:04:09;100063.47;;;21.97;60.50
57376;BME280;44805;45.048;5.062;2023-05-08T12:06:37;100079.53;;;22.42;59.50
57376;BME280;44805;45.048;5.062;2023-05-08T12:09:08;100061.25;;;21.87;60.55
57376;BME280;44805;45.048;5.062;2023-05-08T12:11:34;100072.03;;;21.81;60.07
57376;BME280;44805;45.048;5.062;2023-05-08T12:13:59;100095.94;;;21.82;61.07
57376;BME280;44805;45.048;5.062;2023-05-08T12:16:25;100074.91;;;21.79;62.64
57376;BME280;44805;45.048;5.062;2023-05-08T12:18:51;100075.88;;;21.46;61.59
57376;BME280;44805;45.048;5.062;2023-05-08T12:21:18;100068.91;;;21.25;63.93
57376;BME280;44805;45.048;5.062;2023-05-08T12:23:44;100028.25;;;20.77;62.55
57376;BME280;44805;45.048;5.062;2023-05-08T12:26:09;100052.41;;;21.29;61.44
57376;BME280;44805;45.048;5.062;2023-05-08T12:28:37;100044.66;;;21.72;59.24
57376;BME280;44805;45.048;5.062;2023-05-08T12:31:03;100010.50;;;21.61;58.53
57376;BME280;44805;45.048;5.062;2023-05-08T12:33:28;100050.44;;;21.69;57.14
57376;BME280;44805;45.048;5.062;2023-05-08T12:35:55;100034.91;;;21.78;57.07
57376;BME280;44805;45.048;5.062;2023-05-08T12:38:25;100098.22;;;22.17;58.03
57376;BME280;44805;45.048;5.062;2023-05-08T12:40:51;100044.38;;;21.87;58.07
57376;BME280;44805;45.048;5.062;2023-05-08T12:43:35;100097.25;;;22.05;58.88
57376;BME280;44805;45.048;5.062;2023-05-08T12:46:02;100043.09;;;21.58;59.79
57376;BME280;44805;45.048;5.062;2023-05-08T12:48:28;100012.75;;;21.64;57.64
57376;BME280;44805;45.048;5.062;2023-05-08T12:51:00;100046.84;;;21.88;57.07
57376;BME280;44805;45.048;5.062;2023-05-08T12:53:28;100052.84;;;22.16;57.51
57376;BME280;44805;45.048;5.062;2023-05-08T12:55:56;100002.03;;;21.64;57.32
57376;BME280;44805;45.048;5.062;2023-05-08T12:58:27;100030.81;;;21.75;58.56
57376;BME280;44805;45.048;5.062;2023-05-08T13:01:11;99990.88;;;21.67;58.82
57376;BME280;44805;45.048;5.062;2023-05-08T13:03:38;100065.97;;;22.30;55.97
57376;BME280;44805;45.048;5.062;2023-05-08T13:06:04;100011.72;;;21.97;56.72
57376;BME280;44805;45.048;5.062;2023-05-08T13:08:34;100041.13;;;22.10;57.59
57376;BME280;44805;45.048;5.062;2023-05-08T13:11:01;100012.53;;;21.97;57.87
57376;BME280;44805;45.048;5.062;2023-05-08T13:13:30;99987.03;;;21.50;57.94
57376;BME280;44805;45.048;5.062;2023-05-08T13:15:56;100029.88;;;21.56;57.94
57376;BME280;44805;45.048;5.062;2023-05-08T13:18:25;100023.22;;;21.72;57.76
57376;BME280;44805;45.048;5.062;2023-05-08T13:20:52;99959.75;;;21.21;57.64
57376;BME280;44805;45.048;5.062;2023-05-08T13:23:18;99969.34;;;21.80;56.56
57376;BME280;44805;45.048;5.062;2023-05-08T13:25:43;99977.72;;;21.59;53.64
57376;BME280;44805;45.048;5.062;2023-05-08T13:28:09;99942.28;;;21.57;54.60
57376;BME280;44805;45.048;5.062;2023-05-08T13:30:35;100004.91;;;22.01;56.05
57376;BME280;44805;45.048;5.062;2023-05-08T13:33:02;99950.41;;;21.75;54.81
57376;BME280;44805;45.048;5.062;2023-05-08T13:35:28;99957.16;;;21.84;55.89
57376;BME280;44805;45.048;5.062;2023-05-08T13:37:54;99975.50;;;22.19;56.19